Time;durP1;ratioP1;P1;durP2;ratioP2;P2;SDS_P1;SDS_P2;PMS_P1;PMS_P2;Temp;Humidity;BMP_temperature;BMP_pressure;BME280_temperature;BME280_humidity;BME280_pressure;Samples;Min_cycle;Max_cycle;Signal;HPM_P1;HPM_P2
2022/09/25 00:03:00;;;;;;;9.95;8.70;;;20.20;99.90;;;;;;6136490;28;90805;-64
2022/09/25 00:06:05;;;;;;;9.02;8.13;;;20.20;99.90;;;;;;6147755;28;89095;-64
2022/09/25 00:09:08;;;;;;;9.20;8.27;;;20.20;99.90;;;;;;6138692;28;89418;-63
2022/09/25 00:12:10;;;;;;;9.70;8.70;;;20.20;99.90;;;;;;6138871;28;88753;-63
2022/09/25 00:15:12;;;;;;;9.15;8.23;;;20.20;99.90;;;;;;6146333;28;89102;-63
2022/09/25 00:18:15;;;;;;;9.32;8.43;;;20.20;99.90;;;;;;6155291;28;89114;-63
2022/09/25 00:21:16;;;;;;;9.40;8.38;;;20.20;99.90;;;;;;6149162;28;88997;-63
2022/09/25 00:24:21;;;;;;;9.85;8.85;;;20.20;99.90;;;;;;6158912;28;88500;-63
2022/09/25 00:27:22;;;;;;;8.60;7.80;;;20.30;99.90;;;;;;6146913;28;89069;-64
2022/09/25 00:30:24;;;;;;;9.32;8.43;;;20.20;99.90;;;;;;6150251;28;88032;-63
2022/09/25 00:33:27;;;;;;;9.63;8.73;;;20.20;99.90;;;;;;6153586;28;90327;-63
2022/09/25 00:36:30;;;;;;;8.80;7.90;;;20.20;99.90;;;;;;6138775;28;89069;-64
2022/09/25 00:39:34;;;;;;;9.18;8.27;;;20.20;99.90;;;;;;6136128;28;89142;-64
2022/09/25 00:42:37;;;;;;;9.27;8.30;;;20.20;99.90;;;;;;6150371;28;89189;-62
2022/09/25 00:45:39;;;;;;;9.55;8.55;;;20.20;99.90;;;;;;6155799;28;89058;-62
2022/09/25 00:48:48;;;;;;;9.05;8.15;;;20.20;99.90;;;;;;6145953;28;89089;-62
2022/09/25 00:51:56;;;;;;;9.13;8.23;;;20.20;99.90;;;;;;6146068;28;89045;-62
2022/09/25 00:55:02;;;;;;;8.95;8.05;;;20.20;99.90;;;;;;6136728;28;88376;-62
2022/09/25 00:58:06;;;;;;;9.07;8.18;;;20.20;99.90;;;;;;6137686;28;89061;-62
2022/09/25 01:01:09;;;;;;;8.55;7.75;;;20.20;99.90;;;;;;6139338;28;89044;-62
2022/09/25 01:04:12;;;;;;;8.88;7.97;;;20.20;99.90;;;;;;6139530;28;89061;-62
2022/09/25 01:07:15;;;;;;;9.65;7.75;;;20.20;99.90;;;;;;6140843;28;89309;-63
2022/09/25 01:10:20;;;;;;;9.20;8.30;;;20.20;99.90;;;;;;6150700;28;89398;-62
2022/09/25 01:13:22;;;;;;;8.80;7.90;;;20.20;99.90;;;;;;6145314;28;89127;-63
2022/09/25 01:16:32;;;;;;;8.88;8.00;;;20.20;99.90;;;;;;6157254;28;88329;-62
2022/09/25 01:19:50;;;;;;;9.40;8.50;;;20.20;99.90;;;;;;6145962;28;89129;-62
2022/09/25 01:23:10;;;;;;;8.48;7.63;;;20.20;99.90;;;;;;6147831;28;88063;-62
2022/09/25 01:26:32;;;;;;;8.43;7.63;;;20.20;99.90;;;;;;6137801;28;88779;-62
2022/09/25 01:29:40;;;;;;;8.80;7.90;;;20.20;99.90;;;;;;6148092;28;89445;-62
2022/09/25 01:32:56;;;;;;;8.80;8.00;;;20.20;99.90;;;;;;6147467;28;89126;-62
2022/09/25 01:36:03;;;;;;;8.32;7.53;;;20.20;99.90;;;;;;6145320;28;90399;-62
2022/09/25 01:39:11;;;;;;;8.52;7.63;;;20.20;99.90;;;;;;6147878;28;88002;-63
2022/09/25 01:42:18;;;;;;;8.48;7.60;;;20.20;99.90;;;;;;6139383;28;89025;-62
2022/09/25 01:45:28;;;;;;;8.98;7.80;;;20.20;99.90;;;;;;6135158;28;88330;-62
2022/09/25 01:48:33;;;;;;;8.57;7.78;;;20.20;99.90;;;;;;6134333;28;88419;-62
2022/09/25 01:51:39;;;;;;;8.30;7.50;;;20.20;99.90;;;;;;6144065;28;88951;-62
2022/09/25 01:54:45;;;;;;;8.73;7.90;;;20.20;99.90;;;;;;6144341;28;89187;-62
2022/09/25 01:57:51;;;;;;;8.27;7.47;;;20.20;99.90;;;;;;6148819;28;88321;-62
2022/09/25 02:00:59;;;;;;;8.43;7.63;;;20.20;99.90;;;;;;6144660;28;89090;-62
2022/09/25 02:04:07;;;;;;;8.55;7.68;;;20.20;99.90;;;;;;6155586;28;89563;-62
2022/09/25 02:07:12;;;;;;;8.60;7.80;;;20.20;99.90;;;;;;6172510;28;89920;-62
2022/09/25 02:10:17;;;;;;;8.80;7.93;;;20.20;99.90;;;;;;6158995;28;89156;-62
2022/09/25 02:13:21;;;;;;;8.95;7.82;;;20.20;99.90;;;;;;6157867;28;87887;-62
2022/09/25 02:16:30;;;;;;;8.75;7.85;;;20.20;99.90;;;;;;6147202;28;89270;-62
2022/09/25 02:22:54;;;;;;;8.57;7.70;;;20.20;99.90;;;;;;6166483;28;87067;-62
2022/09/25 02:26:03;;;;;;;8.00;7.20;;;20.20;99.90;;;;;;6146220;28;89015;-63
2022/09/25 02:29:05;;;;;;;7.60;6.90;;;20.20;99.90;;;;;;6157747;28;88693;-62
2022/09/25 02:32:13;;;;;;;8.32;7.50;;;20.20;99.90;;;;;;6153235;28;89430;-62
2022/09/25 02:35:15;;;;;;;8.50;7.60;;;20.20;99.90;;;;;;6148308;28;89220;-62
2022/09/25 02:38:17;;;;;;;8.45;7.60;;;20.20;99.90;;;;;;6150479;28;88852;-62
2022/09/25 02:41:28;;;;;;;8.30;7.50;;;20.20;99.90;;;;;;6177077;28;88072;-62
2022/09/25 02:44:41;;;;;;;7.95;7.15;;;20.20;99.90;;;;;;6146341;28;89089;-62
2022/09/25 02:47:57;;;;;;;8.40;7.40;;;20.20;99.90;;;;;;6150043;28;89289;-62
2022/09/25 02:51:08;;;;;;;8.10;7.30;;;20.20;99.90;;;;;;6147265;28;89124;-62
2022/09/25 02:54:19;;;;;;;7.70;7.00;;;20.20;99.90;;;;;;6155738;28;89186;-62
2022/09/25 02:57:29;;;;;;;7.78;7.00;;;20.20;99.90;;;;;;6156270;28;89135;-62
2022/09/25 03:00:31;;;;;;;7.55;6.85;;;20.20;99.90;;;;;;6162424;28;87271;-62
2022/09/25 03:03:37;;;;;;;7.90;7.10;;;20.20;99.90;;;;;;6153404;28;89007;-62
2022/09/25 03:06:40;;;;;;;7.28;6.57;;;20.20;99.90;;;;;;6155695;28;89050;-62
2022/09/25 03:09:46;;;;;;;7.75;6.95;;;20.20;99.90;;;;;;6154903;28;90301;-62
2022/09/25 03:12:48;;;;;;;7.25;6.57;;;20.20;99.90;;;;;;6177097;28;89103;-62
2022/09/25 03:15:54;;;;;;;8.10;7.30;;;20.20;99.90;;;;;;6160219;28;88980;-62
2022/09/25 03:18:57;;;;;;;7.05;6.45;;;20.20;99.90;;;;;;6136856;28;89209;-62
2022/09/25 03:21:59;;;;;;;7.60;6.90;;;20.20;99.90;;;;;;6144908;28;87917;-62
2022/09/25 03:25:01;;;;;;;7.28;6.57;;;20.20;99.90;;;;;;6160596;28;89242;-62
2022/09/25 03:28:04;;;;;;;7.10;6.40;;;20.20;99.90;;;;;;6159380;28;89071;-62
2022/09/25 03:31:09;;;;;;;7.15;6.45;;;20.20;99.90;;;;;;6160149;28;88386;-62
2022/09/25 03:34:13;;;;;;;7.13;6.43;;;20.20;99.90;;;;;;6160016;28;89233;-62
2022/09/25 03:37:16;;;;;;;7.80;7.10;;;20.20;99.90;;;;;;6148987;28;89144;-62
2022/09/25 03:40:18;;;;;;;7.80;7.00;;;20.20;99.90;;;;;;6158513;28;90262;-62
2022/09/25 03:43:20;;;;;;;7.45;6.75;;;20.20;99.90;;;;;;6158984;28;89162;-62
2022/09/25 03:46:24;;;;;;;7.03;6.40;;;20.20;99.90;;;;;;6153488;28;89385;-62
2022/09/25 03:49:27;;;;;;;7.07;6.47;;;20.20;99.90;;;;;;6157762;28;89347;-62
2022/09/25 03:52:29;;;;;;;7.10;6.40;;;20.20;99.90;;;;;;6151840;28;89091;-62
2022/09/25 03:55:31;;;;;;;6.68;5.95;;;20.20;99.90;;;;;;6145843;28;89418;-62
2022/09/25 03:58:34;;;;;;;7.30;6.60;;;20.20;99.90;;;;;;6147241;28;89107;-62
2022/09/25 04:01:36;;;;;;;7.45;6.75;;;20.20;99.90;;;;;;6160462;28;88351;-62
2022/09/25 04:04:40;;;;;;;7.43;6.72;;;20.20;99.90;;;;;;6148804;28;89040;-62
2022/09/25 04:07:42;;;;;;;7.35;6.57;;;20.20;99.90;;;;;;6145024;28;89155;-62
2022/09/25 04:10:44;;;;;;;6.43;5.82;;;20.20;99.90;;;;;;6156121;28;90126;-62
2022/09/25 04:13:46;;;;;;;6.68;6.07;;;20.20;99.90;;;;;;6144714;28;89084;-62
2022/09/25 04:16:49;;;;;;;7.05;6.35;;;20.20;99.90;;;;;;6151633;28;89486;-62
2022/09/25 04:19:52;;;;;;;6.68;6.07;;;20.20;99.90;;;;;;6147696;28;88867;-62
2022/09/25 04:22:54;;;;;;;6.65;6.05;;;20.20;99.90;;;;;;6141384;28;89486;-62
2022/09/25 04:25:57;;;;;;;6.60;6.00;;;20.20;99.90;;;;;;6159024;28;88993;-63
2022/09/25 04:29:00;;;;;;;6.97;6.28;;;20.20;99.90;;;;;;6155399;28;89218;-62
2022/09/25 04:35:23;;;;;;;7.25;6.20;;;20.10;99.90;;;;;;6149557;28;87401;-62
2022/09/25 04:38:25;;;;;;;6.35;5.75;;;20.20;99.90;;;;;;6157189;28;89105;-62
2022/09/25 04:41:27;;;;;;;7.00;5.95;;;20.20;99.90;;;;;;6157673;28;90029;-62
2022/09/25 04:44:29;;;;;;;6.95;5.72;;;20.20;99.90;;;;;;6144813;28;89042;-62
2022/09/25 04:47:31;;;;;;;6.97;6.28;;;20.20;99.90;;;;;;6145383;28;89017;-62
2022/09/25 04:50:35;;;;;;;6.13;5.53;;;20.20;99.90;;;;;;6147848;28;89088;-62
2022/09/25 04:53:37;;;;;;;5.97;5.38;;;20.20;99.90;;;;;;6154141;28;89020;-62
2022/09/25 04:56:39;;;;;;;6.35;5.75;;;20.20;99.90;;;;;;6138697;28;89112;-62
2022/09/25 04:59:41;;;;;;;6.53;5.93;;;20.20;99.90;;;;;;6135302;28;89407;-62
2022/09/25 05:02:43;;;;;;;6.22;5.63;;;20.20;99.90;;;;;;6149986;28;88351;-62
2022/09/25 05:05:47;;;;;;;6.32;5.72;;;20.10;99.90;;;;;;6145289;28;88951;-62
2022/09/25 05:08:49;;;;;;;6.80;5.82;;;20.20;99.90;;;;;;6158003;28;89226;-62
2022/09/25 05:11:51;;;;;;;6.22;5.63;;;20.10;99.90;;;;;;6145935;28;89959;-62
2022/09/25 05:14:53;;;;;;;5.90;5.40;;;20.10;99.90;;;;;;6145052;28;89103;-62
2022/09/25 05:18:00;;;;;;;6.20;5.60;;;20.10;99.90;;;;;;6134819;28;90600;-62
2022/09/25 05:21:05;;;;;;;6.20;5.60;;;20.20;99.90;;;;;;6146419;28;89149;-62
2022/09/25 05:24:08;;;;;;;6.07;5.55;;;20.20;99.90;;;;;;6150469;28;89099;-62
2022/09/25 05:27:11;;;;;;;5.63;5.13;;;20.20;99.90;;;;;;6145158;28;89119;-62
2022/09/25 05:30:13;;;;;;;5.85;5.35;;;20.20;99.90;;;;;;6156476;28;88752;-62
2022/09/25 05:33:16;;;;;;;6.32;5.72;;;20.20;99.90;;;;;;6157617;28;88378;-62
2022/09/25 05:36:20;;;;;;;5.90;5.30;;;20.20;99.90;;;;;;6156120;28;89070;-62
2022/09/25 05:39:22;;;;;;;5.55;5.05;;;20.20;99.90;;;;;;6154724;28;89079;-62
2022/09/25 05:42:24;;;;;;;6.20;5.60;;;20.20;99.90;;;;;;6151716;28;88944;-62
2022/09/25 05:45:26;;;;;;;6.45;5.85;;;20.20;99.90;;;;;;6149876;28;89190;-62
2022/09/25 05:48:28;;;;;;;6.65;5.90;;;20.10;99.90;;;;;;6136355;28;89107;-62
2022/09/25 05:51:32;;;;;;;6.15;5.55;;;20.10;99.90;;;;;;6156622;28;89109;-62
2022/09/25 05:54:34;;;;;;;6.10;5.53;;;20.20;99.90;;;;;;6133498;28;89087;-62
2022/09/25 05:57:37;;;;;;;5.90;5.40;;;20.10;99.90;;;;;;6157034;28;89089;-62
2022/09/25 06:00:39;;;;;;;5.97;5.35;;;20.10;99.90;;;;;;6157359;28;89112;-62
2022/09/25 06:03:41;;;;;;;6.18;5.57;;;20.10;99.90;;;;;;6144347;28;88309;-62
2022/09/25 06:06:44;;;;;;;6.50;5.82;;;20.10;99.90;;;;;;6142694;28;89075;-62
2022/09/25 06:09:46;;;;;;;5.80;5.30;;;20.20;99.90;;;;;;6151939;28;89568;-62
2022/09/25 06:12:48;;;;;;;6.15;5.55;;;20.20;99.90;;;;;;6146296;28;90458;-62
2022/09/25 06:15:51;;;;;;;5.70;5.10;;;20.20;99.90;;;;;;6145904;28;89062;-61
2022/09/25 06:18:53;;;;;;;5.93;5.32;;;20.10;99.90;;;;;;6136480;28;89146;-62
2022/09/25 06:21:57;;;;;;;5.88;5.28;;;20.20;99.90;;;;;;6147414;28;89069;-62
2022/09/25 06:24:59;;;;;;;5.72;5.22;;;20.10;99.90;;;;;;6145174;28;88077;-62
2022/09/25 06:28:02;;;;;;;5.72;5.20;;;20.20;99.90;;;;;;6145568;28;89088;-62
2022/09/25 06:31:05;;;;;;;5.70;5.20;;;20.10;99.90;;;;;;6154960;28;88078;-62
2022/09/25 06:34:08;;;;;;;5.53;5.03;;;20.10;99.90;;;;;;6154053;28;88444;-62
2022/09/25 06:37:11;;;;;;;5.65;5.15;;;20.10;99.90;;;;;;6141495;28;88035;-62
2022/09/25 06:40:13;;;;;;;5.63;5.13;;;20.10;99.90;;;;;;6155547;28;88074;-62
2022/09/25 06:43:16;;;;;;;5.55;5.05;;;20.10;99.90;;;;;;6150688;28;90102;-62
2022/09/25 06:46:19;;;;;;;5.57;5.07;;;20.10;99.90;;;;;;6155536;28;88767;-62
2022/09/25 06:49:22;;;;;;;5.95;5.35;;;20.10;99.90;;;;;;6160781;28;88000;-62
2022/09/25 06:52:25;;;;;;;5.88;5.28;;;20.20;99.90;;;;;;6150054;28;89167;-62
2022/09/25 06:55:27;;;;;;;5.22;4.78;;;20.20;99.90;;;;;;6151086;28;89068;-62
2022/09/25 06:58:30;;;;;;;6.18;5.60;;;20.10;99.90;;;;;;6146222;28;89218;-62
2022/09/25 07:01:32;;;;;;;5.50;5.00;;;20.10;99.90;;;;;;6143044;28;89186;-62
2022/09/25 07:04:33;;;;;;;5.60;5.10;;;20.20;99.90;;;;;;6154312;28;88407;-62
2022/09/25 07:07:36;;;;;;;5.80;5.20;;;20.20;99.90;;;;;;6158885;28;89221;-62
2022/09/25 07:10:39;;;;;;;5.80;5.30;;;20.10;99.90;;;;;;6159863;28;89335;-62
2022/09/25 07:13:41;;;;;;;5.97;5.32;;;20.20;99.90;;;;;;6155631;28;89976;-62
2022/09/25 07:16:43;;;;;;;5.65;5.15;;;20.20;99.90;;;;;;6148886;28;89038;-61
2022/09/25 07:19:45;;;;;;;5.65;5.15;;;20.20;99.90;;;;;;6150618;28;88225;-62
2022/09/25 07:22:52;;;;;;;5.40;4.90;;;20.10;99.90;;;;;;6147804;28;89410;-62
2022/09/25 07:25:54;;;;;;;5.90;5.40;;;20.20;99.90;;;;;;6140237;28;88039;-62
2022/09/25 07:28:59;;;;;;;5.40;4.90;;;20.20;99.90;;;;;;6149214;28;89031;-62
2022/09/25 07:32:01;;;;;;;5.43;4.93;;;20.10;99.90;;;;;;6148942;28;89206;-62
2022/09/25 07:35:03;;;;;;;5.50;5.00;;;20.10;99.90;;;;;;6140553;28;87285;-62
2022/09/25 07:38:07;;;;;;;5.57;5.05;;;20.20;99.90;;;;;;6147297;28;89049;-62
2022/09/25 07:41:11;;;;;;;6.03;5.18;;;20.20;99.90;;;;;;6147582;28;89270;-62
2022/09/25 07:44:14;;;;;;;5.40;4.90;;;20.10;99.90;;;;;;6152405;28;88949;-62
2022/09/25 07:47:18;;;;;;;5.65;5.00;;;20.20;99.90;;;;;;6161084;28;89318;-62
2022/09/25 07:50:20;;;;;;;5.78;5.15;;;20.20;99.90;;;;;;6148955;28;88869;-62
2022/09/25 07:53:23;;;;;;;5.40;4.90;;;20.20;99.90;;;;;;6160395;28;89112;-62
2022/09/25 07:56:26;;;;;;;5.43;4.93;;;20.20;99.90;;;;;;6158695;28;89039;-62
2022/09/25 07:59:28;;;;;;;5.88;5.30;;;20.20;99.90;;;;;;6149323;28;89176;-62
2022/09/25 08:02:30;;;;;;;5.50;5.00;;;20.10;99.90;;;;;;6148554;28;89047;-62
2022/09/25 08:05:32;;;;;;;5.38;4.88;;;20.20;99.90;;;;;;6153450;28;88773;-62
2022/09/25 08:08:35;;;;;;;5.30;4.80;;;20.10;99.90;;;;;;6158991;28;89062;-62
2022/09/25 08:11:38;;;;;;;6.75;5.20;;;20.10;99.90;;;;;;6158344;28;89449;-62
2022/09/25 08:14:40;;;;;;;5.88;5.28;;;20.10;99.90;;;;;;6157498;28;90048;-62
2022/09/25 08:17:42;;;;;;;5.65;5.15;;;20.10;99.90;;;;;;6147983;28;89279;-62
2022/09/25 08:20:44;;;;;;;5.55;5.05;;;20.20;99.90;;;;;;6157164;28;89139;-62
2022/09/25 08:23:51;;;;;;;5.43;4.93;;;20.20;99.90;;;;;;6159124;28;89114;-62
2022/09/25 08:26:53;;;;;;;6.38;5.22;;;20.20;99.90;;;;;;6145859;28;89180;-62
2022/09/25 08:29:55;;;;;;;5.45;4.95;;;20.20;99.90;;;;;;6146845;28;89635;-61
2022/09/25 08:32:57;;;;;;;5.28;4.78;;;20.20;99.90;;;;;;6146314;28;89153;-62
2022/09/25 08:36:00;;;;;;;5.40;4.85;;;20.20;99.90;;;;;;6151537;28;88337;-61
2022/09/25 08:39:04;;;;;;;5.35;4.85;;;20.20;99.90;;;;;;6152165;28;89146;-62
2022/09/25 08:42:07;;;;;;;5.57;5.07;;;20.20;99.90;;;;;;6145741;28;89013;-62
2022/09/25 08:49:04;;;;;;;6.60;5.82;;;20.10;99.90;;;;;;6159019;28;87302;-61
2022/09/25 08:52:13;;;;;;;6.13;5.50;;;20.20;99.90;;;;;;6155869;28;87991;-62
2022/09/25 08:55:22;;;;;;;6.35;5.35;;;20.20;99.90;;;;;;6147375;28;89183;-62
2022/09/25 08:58:27;;;;;;;5.72;5.20;;;20.10;99.90;;;;;;6146281;28;88807;-62
2022/09/25 09:01:42;;;;;;;5.50;4.97;;;20.20;99.90;;;;;;6135335;28;88837;-62
2022/09/25 09:04:47;;;;;;;5.65;5.05;;;20.20;99.90;;;;;;6158341;28;89091;-62
2022/09/25 09:07:56;;;;;;;5.68;5.18;;;20.20;99.90;;;;;;6146239;28;88388;-62
2022/09/25 09:11:04;;;;;;;5.80;5.20;;;20.20;99.90;;;;;;6157762;28;91201;-62
2022/09/25 09:14:14;;;;;;;6.30;5.70;;;20.20;99.90;;;;;;6157107;28;89087;-62
2022/09/25 09:17:19;;;;;;;6.00;5.40;;;20.20;99.90;;;;;;6139752;28;90048;-62
2022/09/25 09:20:26;;;;;;;6.40;5.75;;;20.20;99.90;;;;;;6154822;28;89131;-62
2022/09/25 09:23:33;;;;;;;6.43;5.80;;;20.20;99.90;;;;;;6147804;28;88018;-62
2022/09/25 09:27:14;;;;;;;6.13;5.53;;;20.20;99.90;;;;;;6158653;28;89099;-62
2022/09/25 09:30:19;;;;;;;6.57;5.97;;;20.20;99.90;;;;;;6149470;28;89153;-61
2022/09/25 09:33:37;;;;;;;6.55;5.80;;;20.20;99.90;;;;;;6157690;28;89340;-62
2022/09/25 09:36:48;;;;;;;6.45;5.85;;;20.20;99.90;;;;;;6134561;28;87917;-62
2022/09/25 09:40:03;;;;;;;6.47;5.88;;;20.20;99.90;;;;;;6158887;28;89433;-62
2022/09/25 09:43:23;;;;;;;6.65;5.95;;;20.20;99.90;;;;;;6157277;28;89460;-62
2022/09/25 09:46:33;;;;;;;6.63;5.95;;;20.20;99.90;;;;;;6153986;28;89173;-62
2022/09/25 09:49:41;;;;;;;6.95;6.25;;;20.20;99.90;;;;;;6152780;28;90156;-62
2022/09/25 09:52:45;;;;;;;6.93;6.22;;;20.20;99.90;;;;;;6153440;28;89021;-63
2022/09/25 09:55:50;;;;;;;6.82;6.13;;;20.20;99.90;;;;;;6156238;28;89097;-62
2022/09/25 09:58:57;;;;;;;6.93;6.25;;;20.20;99.90;;;;;;6156084;28;89067;-62
2022/09/25 10:02:03;;;;;;;6.78;6.10;;;20.20;99.90;;;;;;6141293;28;89237;-61
2022/09/25 10:05:08;;;;;;;6.97;6.28;;;20.20;99.90;;;;;;6135220;28;89318;-62
2022/09/25 10:08:11;;;;;;;7.30;6.60;;;20.20;99.90;;;;;;6144891;28;89126;-62
2022/09/25 10:11:17;;;;;;;7.07;6.38;;;20.20;99.90;;;;;;6149193;28;88708;-62
2022/09/25 10:14:25;;;;;;;7.07;6.38;;;20.20;99.90;;;;;;6149887;28;89090;-62
2022/09/25 10:17:29;;;;;;;7.15;6.45;;;20.20;99.90;;;;;;6160706;28;89079;-61
2022/09/25 10:20:41;;;;;;;7.80;6.82;;;20.20;99.90;;;;;;6157113;28;89979;-62
2022/09/25 10:23:49;;;;;;;7.40;6.57;;;20.20;99.90;;;;;;6152215;28;89029;-61
2022/09/25 10:26:51;;;;;;;7.93;6.68;;;20.20;99.90;;;;;;6159480;28;89223;-62
2022/09/25 10:30:19;;;;;;;7.45;6.75;;;20.30;99.90;;;;;;6161731;28;89013;-61
2022/09/25 10:33:23;;;;;;;7.47;6.78;;;20.30;99.90;;;;;;6136610;28;88973;-62
2022/09/25 10:36:32;;;;;;;7.13;6.43;;;20.30;99.90;;;;;;6139140;28;89196;-61
2022/09/25 10:39:38;;;;;;;7.68;6.88;;;20.30;99.90;;;;;;6160886;28;88162;-62
2022/09/25 10:42:41;;;;;;;6.93;6.20;;;20.30;99.90;;;;;;6153861;28;88259;-61
2022/09/25 10:45:44;;;;;;;7.72;6.93;;;20.30;99.90;;;;;;6144222;28;89080;-64
2022/09/25 10:52:08;;;;;;;7.60;6.80;;;20.30;99.90;;;;;;6147248;28;88743;-61
2022/09/25 10:55:15;;;;;;;7.78;6.97;;;20.30;99.90;;;;;;6146900;28;87926;-61
2022/09/25 10:58:22;;;;;;;7.20;6.50;;;20.30;99.90;;;;;;6149123;28;88087;-62
2022/09/25 11:01:35;;;;;;;7.63;6.85;;;20.30;99.90;;;;;;6136699;28;89058;-62
2022/09/25 11:04:37;;;;;;;7.32;6.63;;;20.30;99.90;;;;;;6160603;28;89164;-62
2022/09/25 11:07:39;;;;;;;7.55;6.85;;;20.30;99.90;;;;;;6148490;28;89005;-62
2022/09/25 11:10:49;;;;;;;7.50;6.80;;;20.30;99.90;;;;;;6159920;28;88193;-62
2022/09/25 11:13:54;;;;;;;8.13;7.22;;;20.30;99.90;;;;;;6160352;28;88637;-62
2022/09/25 11:16:57;;;;;;;7.70;6.90;;;20.30;99.90;;;;;;6141052;28;89110;-62
2022/09/25 11:20:20;;;;;;;7.75;6.95;;;20.30;99.90;;;;;;6152358;28;88004;-62
2022/09/25 11:23:32;;;;;;;8.27;7.47;;;20.30;99.90;;;;;;6148179;28;90101;-62
2022/09/25 11:26:38;;;;;;;8.00;7.20;;;20.30;99.90;;;;;;6137089;28;89139;-62
2022/09/25 11:29:47;;;;;;;8.10;7.30;;;20.30;99.90;;;;;;6159919;28;88303;-62
2022/09/25 11:32:54;;;;;;;8.57;7.68;;;20.30;99.90;;;;;;6147924;28;89073;-62
2022/09/25 11:36:02;;;;;;;8.10;7.30;;;20.30;99.90;;;;;;6159565;28;87851;-62
2022/09/25 11:42:39;;;;;;;8.50;7.60;;;20.30;99.90;;;;;;6146568;28;87343;-62
2022/09/25 11:45:45;;;;;;;9.00;7.75;;;20.30;99.90;;;;;;6157850;28;88314;-62
2022/09/25 11:48:56;;;;;;;9.07;7.80;;;20.30;99.90;;;;;;6168734;28;89170;-62
2022/09/25 11:52:25;;;;;;;9.15;8.07;;;20.30;99.90;;;;;;6135117;28;89092;-62
2022/09/25 11:56:03;;;;;;;9.82;8.15;;;20.30;99.90;;;;;;6158594;28;89749;-62
2022/09/25 11:59:22;;;;;;;8.55;7.60;;;20.30;99.90;;;;;;6146368;28;89459;-63
2022/09/25 12:02:41;;;;;;;8.90;7.95;;;20.30;99.90;;;;;;6139714;28;89135;-62
2022/09/25 12:05:57;;;;;;;9.32;8.13;;;20.30;99.90;;;;;;6148469;28;89132;-62
2022/09/25 12:09:15;;;;;;;8.95;8.05;;;20.40;99.90;;;;;;6155125;28;89036;-62
2022/09/25 12:12:27;;;;;;;8.68;7.78;;;20.30;99.90;;;;;;6157627;28;89146;-62
2022/09/25 12:15:46;;;;;;;9.38;8.38;;;20.40;99.90;;;;;;6155814;28;89505;-62
2022/09/25 12:19:05;;;;;;;9.65;8.48;;;20.40;99.90;;;;;;6159858;28;86286;-62
2022/09/25 12:22:19;;;;;;;9.73;8.20;;;20.30;99.90;;;;;;6140208;28;89180;-62
2022/09/25 12:25:36;;;;;;;10.30;8.57;;;20.30;99.90;;;;;;6159025;28;89124;-63
2022/09/25 12:28:52;;;;;;;11.00;8.80;;;20.40;99.90;;;;;;6155275;28;90052;-62
2022/09/25 12:32:03;;;;;;;10.55;8.52;;;20.40;99.90;;;;;;6134708;28;89398;-62
2022/09/25 12:35:25;;;;;;;9.32;8.30;;;20.40;99.90;;;;;;6144337;28;89099;-62
2022/09/25 12:38:37;;;;;;;10.30;8.60;;;20.40;99.90;;;;;;6151600;28;89083;-62
2022/09/25 12:41:44;;;;;;;11.02;8.50;;;20.30;99.90;;;;;;6154948;28;89308;-62
2022/09/25 12:44:51;;;;;;;11.15;8.38;;;20.30;99.90;;;;;;6134276;28;89214;-62
2022/09/25 12:48:07;;;;;;;10.55;8.70;;;20.40;99.90;;;;;;6164703;28;89770;-62
2022/09/25 12:51:17;;;;;;;9.05;8.15;;;20.40;99.90;;;;;;6147396;28;88405;-62
2022/09/25 12:54:27;;;;;;;9.15;8.25;;;20.40;99.90;;;;;;6153710;28;89319;-62
2022/09/25 12:57:36;;;;;;;10.07;8.40;;;20.40;99.90;;;;;;6155992;28;89044;-62
2022/09/25 13:00:41;;;;;;;10.95;8.85;;;20.40;99.90;;;;;;6157706;28;90743;-62
2022/09/25 13:03:51;;;;;;;10.75;8.85;;;20.40;99.90;;;;;;6146011;28;89153;-62
2022/09/25 13:06:58;;;;;;;10.40;8.80;;;20.40;99.90;;;;;;6143565;28;88933;-63
2022/09/25 13:10:06;;;;;;;10.15;8.88;;;20.40;99.90;;;;;;6149054;28;89081;-62
2022/09/25 13:13:14;;;;;;;12.13;9.50;;;20.30;99.90;;;;;;6155821;28;89218;-62
2022/09/25 13:16:16;;;;;;;10.98;9.38;;;20.40;99.90;;;;;;6145540;28;89391;-62
2022/09/25 13:19:27;;;;;;;11.10;9.55;;;20.40;99.90;;;;;;6147260;28;87889;-63
2022/09/25 13:22:33;;;;;;;10.75;9.40;;;20.30;99.90;;;;;;6153009;28;88673;-62
2022/09/25 13:25:43;;;;;;;10.90;9.20;;;20.40;99.90;;;;;;6140906;28;89123;-62
2022/09/25 13:28:51;;;;;;;10.98;9.32;;;20.40;99.90;;;;;;6145591;28;89043;-62
2022/09/25 13:32:03;;;;;;;12.25;10.07;;;20.40;99.90;;;;;;6148259;28;90214;-63
2022/09/25 13:35:12;;;;;;;14.10;10.20;;;20.40;99.90;;;;;;6152792;28;89165;-62
2022/09/25 13:40:41;;;;;;;12.32;9.95;;;20.40;99.90;;;;;;6156436;28;89108;-62
2022/09/25 13:41:54;;;;;;;13.07;10.35;;;20.40;99.90;;;;;;6156752;28;88646;-62
2022/09/25 13:45:21;;;;;;;12.25;10.35;;;20.40;99.90;;;;;;6142248;28;89105;-62
2022/09/25 13:48:36;;;;;;;12.30;10.23;;;20.40;99.90;;;;;;6167629;28;89035;-62
2022/09/25 13:51:38;;;;;;;14.38;11.10;;;20.40;99.90;;;;;;6144577;28;89649;-62
2022/09/25 13:54:42;;;;;;;11.10;9.82;;;20.40;99.90;;;;;;6147947;28;88336;-62
2022/09/25 14:01:32;;;;;;;12.65;10.48;;;20.40;99.90;;;;;;6312950;27;80247;-62
2022/09/25 14:04:37;;;;;;;13.90;11.10;;;20.40;99.90;;;;;;6305245;27;82908;-63
2022/09/25 14:07:41;;;;;;;13.95;10.82;;;20.40;99.90;;;;;;6305174;27;82753;-63
2022/09/25 14:10:44;;;;;;;14.57;11.07;;;20.40;99.90;;;;;;6305299;27;82778;-64
2022/09/25 14:13:50;;;;;;;15.07;11.32;;;20.40;99.90;;;;;;6305379;27;82768;-64
2022/09/25 14:16:57;;;;;;;13.13;10.90;;;20.40;99.90;;;;;;6304727;27;83764;-64
2022/09/25 14:20:02;;;;;;;13.18;10.82;;;20.40;99.90;;;;;;6304555;27;82713;-63
2022/09/25 14:23:11;;;;;;;12.75;11.35;;;20.40;99.90;;;;;;6305276;27;82694;-63
2022/09/25 14:26:20;;;;;;;13.63;11.52;;;20.40;99.90;;;;;;6305653;27;84216;-64
2022/09/25 14:29:24;;;;;;;14.68;11.00;;;20.40;99.90;;;;;;6304619;27;82581;-63
2022/09/25 14:32:40;;;;;;;13.75;11.05;;;20.40;99.90;;;;;;6304775;27;84020;-64
2022/09/25 14:35:47;;;;;;;14.18;11.50;;;20.40;99.90;;;;;;6304608;27;83166;-63
2022/09/25 14:39:11;;;;;;;16.58;12.05;;;20.40;99.90;;;;;;6307457;27;82846;-63
2022/09/25 14:42:29;;;;;;;14.00;11.93;;;20.40;99.90;;;;;;6304017;27;82778;-64
2022/09/25 14:46:02;;;;;;;13.68;11.30;;;20.40;99.90;;;;;;6304394;27;82561;-64
2022/09/25 14:49:14;;;;;;;13.95;12.07;;;20.40;99.90;;;;;;6303741;27;82760;-64
2022/09/25 14:52:22;;;;;;;16.40;12.35;;;20.40;99.90;;;;;;6304248;27;84107;-64
2022/09/25 14:55:26;;;;;;;14.45;12.07;;;20.40;99.90;;;;;;6303070;27;82791;-64
2022/09/25 14:58:31;;;;;;;13.95;11.30;;;20.40;99.90;;;;;;6303760;27;83490;-63
2022/09/25 15:01:33;;;;;;;13.63;11.57;;;20.40;99.90;;;;;;6304485;27;82839;-64
2022/09/25 15:04:37;;;;;;;15.65;11.63;;;20.40;99.90;;;;;;6304536;27;82855;-64
2022/09/25 15:07:43;;;;;;;14.27;11.70;;;20.40;99.90;;;;;;6304732;27;82888;-64
2022/09/25 15:10:45;;;;;;;13.85;11.18;;;20.40;99.90;;;;;;6287581;27;82781;-64
2022/09/25 15:13:47;;;;;;;14.98;11.50;;;20.40;99.90;;;;;;6283160;27;82703;-64
2022/09/25 15:20:15;;;;;;;14.07;11.43;;;20.40;99.90;;;;;;6286093;27;82768;-64
2022/09/25 15:23:21;;;;;;;15.38;12.10;;;20.40;99.90;;;;;;6287783;27;83123;-63
2022/09/25 15:26:23;;;;;;;13.35;11.90;;;20.40;99.90;;;;;;6285783;27;83704;-64
2022/09/25 15:29:25;;;;;;;14.30;11.75;;;20.30;99.90;;;;;;6287166;27;82684;-64
2022/09/25 15:32:31;;;;;;;13.75;11.85;;;20.40;99.90;;;;;;6286616;27;82838;-64
2022/09/25 15:35:35;;;;;;;15.43;12.35;;;20.40;99.90;;;;;;6286288;27;82746;-63
2022/09/25 15:38:38;;;;;;;14.07;11.95;;;20.30;99.90;;;;;;6289041;27;85383;-63
2022/09/25 15:41:42;;;;;;;13.45;11.55;;;20.30;99.90;;;;;;6287332;27;83887;-63
2022/09/25 15:44:45;;;;;;;15.07;11.68;;;20.40;99.90;;;;;;6274648;27;82659;-63
2022/09/25 15:47:52;;;;;;;13.98;11.68;;;20.30;99.90;;;;;;6286129;27;82865;-63
2022/09/25 15:50:57;;;;;;;17.00;12.18;;;20.40;99.90;;;;;;6286539;27;84069;-64
2022/09/25 15:54:02;;;;;;;15.52;11.90;;;20.30;99.90;;;;;;6286345;27;82732;-64
2022/09/25 15:57:10;;;;;;;14.05;11.43;;;20.30;99.90;;;;;;6286066;27;82719;-64
2022/09/25 16:07:22;;;;;;;15.43;12.25;;;20.30;99.90;;;;;;6286243;27;82812;-63
2022/09/25 16:10:33;;;;;;;15.27;12.05;;;20.30;99.90;;;;;;6285554;27;82698;-64
2022/09/25 16:13:39;;;;;;;13.65;10.90;;;20.30;99.90;;;;;;6285110;27;82826;-64
2022/09/25 16:16:48;;;;;;;13.73;11.20;;;20.30;99.90;;;;;;6285192;27;83033;-64
2022/09/25 16:20:02;;;;;;;15.45;11.75;;;20.40;99.90;;;;;;6285772;27;82788;-64
2022/09/25 16:23:18;;;;;;;14.98;11.52;;;20.40;99.90;;;;;;6285074;27;82786;-63
2022/09/25 16:26:24;;;;;;;13.52;11.52;;;20.40;99.90;;;;;;6284381;27;83411;-65
2022/09/25 16:29:28;;;;;;;18.10;12.60;;;20.30;99.90;;;;;;6285617;27;82738;-64
2022/09/25 16:32:30;;;;;;;13.82;11.13;;;20.40;99.90;;;;;;6285621;27;82938;-64
2022/09/25 16:35:35;;;;;;;14.20;11.23;;;20.30;99.90;;;;;;6285410;27;82783;-64
2022/09/25 16:38:40;;;;;;;15.45;12.05;;;20.30;99.90;;;;;;6288132;27;82798;-64